Terminal Aerodrome Forecast
Issued by NWS

Home | Current Version | Previous Version | Text Only | Print | Product List | Glossary On
Versions: 1 2 3 4 5 6 7 8 9 10 11 12 13 14 15
000
FTUS45 KVEF 211100
TAFDAG
TAF
KDAG 211121Z 2112/2212 28009KT P6SM SCT110
     FM211800 06006KT P6SM SCT110
     FM220400 25011KT P6SM FEW110=

USA.gov is the U.S. government's official web portal to all federal, state and local government web resources and services.